Time;durP1;ratioP1;P1;durP2;ratioP2;P2;SDS_P1;SDS_P2;PMS_P1;PMS_P2;Temp;Humidity;BMP_temperature;BMP_pressure;BME280_temperature;BME280_humidity;BME280_pressure;Samples;Min_cycle;Max_cycle;Signal;HPM_P1;HPM_P2
2023/08/02 00:01:47;;;;;;;1.10;1.10;;;16.10;99.90;;;;;;5083634;27;20046;-91
2023/08/02 00:04:14;;;;;;;1.30;1.30;;;16.30;99.90;;;;;;5082810;28;20055;-89
2023/08/02 00:06:43;;;;;;;1.35;1.33;;;16.20;99.90;;;;;;5065387;28;20052;-89
2023/08/02 00:09:08;;;;;;;0.95;0.95;;;16.20;99.90;;;;;;5071982;28;20047;-89
2023/08/02 00:11:34;;;;;;;0.90;0.90;;;16.30;99.90;;;;;;5078096;28;20035;-89
2023/08/02 00:14:00;;;;;;;1.17;1.17;;;16.50;99.90;;;;;;5069483;28;20549;-91
2023/08/02 00:16:32;;;;;;;1.05;1.05;;;16.50;99.90;;;;;;5066483;28;20079;-90
2023/08/02 00:18:58;;;;;;;1.20;1.20;;;16.50;99.90;;;;;;5071405;28;20058;-92
2023/08/02 00:21:50;;;;;;;0.90;0.90;;;16.50;99.90;;;;;;5084963;28;20058;-96
2023/08/02 00:24:16;;;;;;;1.15;1.15;;;16.40;99.90;;;;;;5086857;28;20139;-89
2023/08/02 00:26:41;;;;;;;0.90;0.90;;;16.60;99.90;;;;;;5065299;28;20201;-91
2023/08/02 00:29:07;;;;;;;0.90;0.90;;;16.50;99.90;;;;;;5067318;28;20085;-91
2023/08/02 00:31:37;;;;;;;1.25;1.25;;;16.50;99.90;;;;;;5062314;28;20047;-92
2023/08/02 00:34:03;;;;;;;0.90;0.90;;;16.50;99.90;;;;;;5068665;27;20066;-89
2023/08/02 00:36:29;;;;;;;1.42;1.40;;;16.40;99.90;;;;;;5067489;28;20048;-92
2023/08/02 00:38:54;;;;;;;1.00;1.00;;;16.50;99.90;;;;;;5070079;28;20039;-91
2023/08/02 00:41:26;;;;;;;0.80;0.80;;;16.40;99.90;;;;;;5072805;28;20108;-95
2023/08/02 00:43:55;;;;;;;1.10;1.10;;;16.70;99.90;;;;;;5076885;27;20489;-95
2023/08/02 00:46:26;;;;;;;1.00;1.00;;;16.60;99.90;;;;;;5066899;28;20119;-93
2023/08/02 00:48:52;;;;;;;1.38;1.35;;;16.40;99.90;;;;;;5072454;27;20044;-91
2023/08/02 00:51:22;;;;;;;0.90;0.90;;;16.30;99.90;;;;;;5068194;28;20771;-93
2023/08/02 00:53:48;;;;;;;1.38;1.38;;;16.60;99.90;;;;;;5073977;28;20484;-90
2023/08/02 00:56:17;;;;;;;1.27;1.27;;;16.30;99.90;;;;;;5070634;28;20042;-90
2023/08/02 00:58:43;;;;;;;1.30;1.30;;;16.40;99.90;;;;;;5076448;27;20120;-93
2023/08/02 01:01:09;;;;;;;0.90;0.90;;;16.30;99.90;;;;;;5058014;28;20048;-90
2023/08/02 01:03:41;;;;;;;1.23;1.23;;;16.40;99.90;;;;;;5074083;27;20400;-92
2023/08/02 01:06:24;;;;;;;0.80;0.80;;;16.50;99.90;;;;;;5084251;28;20115;-88
2023/08/02 01:09:19;;;;;;;1.27;1.27;;;16.70;99.90;;;;;;5072697;28;20556;-93
2023/08/02 01:11:54;;;;;;;0.73;0.73;;;16.50;99.90;;;;;;5059324;28;20297;-92
2023/08/02 01:14:32;;;;;;;1.33;1.33;;;16.50;99.90;;;;;;5067658;28;20077;-92
2023/08/02 01:17:02;;;;;;;1.25;1.25;;;16.40;99.90;;;;;;5075135;28;20040;-93
2023/08/02 01:19:28;;;;;;;1.52;1.45;;;16.60;99.90;;;;;;5072417;28;20130;-91
2023/08/02 01:21:54;;;;;;;1.00;1.00;;;16.40;99.90;;;;;;5074726;28;20119;-89
2023/08/02 01:24:32;;;;;;;0.98;0.98;;;16.60;99.90;;;;;;5071815;28;20075;-91
2023/08/02 01:27:00;;;;;;;1.40;1.38;;;16.50;99.90;;;;;;5086967;28;20047;-93
2023/08/02 01:29:39;;;;;;;1.27;1.27;;;16.60;99.90;;;;;;5068594;28;20077;-93
2023/08/02 01:32:06;;;;;;;1.23;1.23;;;16.50;99.90;;;;;;5072997;27;20054;-93
2023/08/02 01:34:33;;;;;;;1.38;1.35;;;16.30;99.90;;;;;;5074661;28;20040;-89
2023/08/02 01:37:00;;;;;;;1.17;1.17;;;16.40;99.90;;;;;;5067020;28;20043;-88
2023/08/02 01:39:25;;;;;;;0.90;0.90;;;16.60;99.90;;;;;;5074169;27;20067;-93
2023/08/02 01:41:54;;;;;;;1.30;1.30;;;16.50;99.90;;;;;;5072306;28;20074;-92
2023/08/02 01:44:23;;;;;;;0.90;0.90;;;16.30;99.90;;;;;;5091035;27;20373;-92
2023/08/02 01:46:49;;;;;;;1.25;1.25;;;16.50;99.90;;;;;;5072007;27;20039;-90
2023/08/02 01:49:14;;;;;;;1.00;1.00;;;16.40;99.90;;;;;;5099150;27;20032;-90
2023/08/02 01:51:43;;;;;;;1.23;1.23;;;16.30;99.90;;;;;;5073409;28;20100;-93
2023/08/02 01:54:09;;;;;;;1.00;1.00;;;16.30;99.90;;;;;;5066804;28;20043;-88
2023/08/02 01:56:34;;;;;;;1.35;1.35;;;16.30;99.90;;;;;;5071410;27;20086;-92
2023/08/02 01:59:00;;;;;;;1.30;1.30;;;16.20;99.90;;;;;;5085277;28;20918;-90
2023/08/02 02:01:26;;;;;;;1.10;1.10;;;16.20;99.90;;;;;;5071043;27;20063;-93
2023/08/02 02:03:52;;;;;;;1.33;1.33;;;16.20;99.90;;;;;;5072235;28;20443;-90
2023/08/02 02:06:17;;;;;;;1.00;1.00;;;16.00;99.90;;;;;;5065833;28;20048;-91
2023/08/02 02:08:43;;;;;;;1.20;1.20;;;16.20;99.90;;;;;;5071212;28;20052;-92
2023/08/02 02:11:09;;;;;;;1.50;1.40;;;16.00;99.90;;;;;;5071934;28;20072;-86
2023/08/02 02:13:34;;;;;;;1.10;1.10;;;16.10;99.90;;;;;;5065823;28;20048;-92
2023/08/02 02:16:00;;;;;;;1.45;1.40;;;15.90;99.90;;;;;;5065758;28;20058;-92
2023/08/02 02:18:26;;;;;;;1.60;1.50;;;16.00;99.90;;;;;;5067313;28;20047;-88
2023/08/02 02:20:51;;;;;;;1.45;1.40;;;15.60;99.90;;;;;;5081238;28;20038;-90
2023/08/02 02:23:17;;;;;;;1.52;1.42;;;15.70;99.90;;;;;;5069566;28;20044;-89
2023/08/02 02:25:43;;;;;;;1.23;1.23;;;15.60;99.90;;;;;;5069899;28;20068;-89
2023/08/02 02:28:11;;;;;;;1.10;1.10;;;15.80;99.90;;;;;;5085816;28;20043;-90
2023/08/02 02:30:37;;;;;;;1.45;1.38;;;15.80;99.90;;;;;;5068323;28;20055;-91
2023/08/02 02:33:03;;;;;;;1.27;1.27;;;15.80;99.90;;;;;;5090592;28;20063;-89
2023/08/02 02:35:29;;;;;;;1.23;1.23;;;15.60;99.90;;;;;;5072732;28;20039;-90
2023/08/02 02:37:54;;;;;;;1.13;1.13;;;15.50;99.90;;;;;;5072549;28;20100;-89
2023/08/02 02:40:20;;;;;;;1.38;1.33;;;15.60;99.90;;;;;;5073481;28;20036;-90
2023/08/02 02:42:52;;;;;;;1.75;1.65;;;15.50;99.90;;;;;;5071605;28;20052;-93
2023/08/02 02:45:21;;;;;;;1.50;1.40;;;15.30;99.90;;;;;;5073727;28;20037;-90
2023/08/02 02:47:46;;;;;;;1.60;1.50;;;15.50;99.90;;;;;;5071765;28;20039;-90
2023/08/02 02:50:12;;;;;;;1.25;1.25;;;15.50;99.90;;;;;;5066058;28;20527;-90
2023/08/02 02:52:40;;;;;;;1.40;1.35;;;15.20;99.90;;;;;;5084969;28;20104;-91
2023/08/02 02:55:08;;;;;;;1.77;1.67;;;15.20;99.90;;;;;;5068848;28;20051;-89
2023/08/02 02:57:34;;;;;;;1.75;1.65;;;15.30;99.90;;;;;;5070682;28;20093;-89
2023/08/02 02:59:59;;;;;;;1.63;1.52;;;15.20;99.90;;;;;;5071747;28;20413;-88
2023/08/02 03:02:25;;;;;;;1.75;1.65;;;15.50;99.90;;;;;;5081962;28;20128;-91
2023/08/02 03:04:51;;;;;;;1.30;1.30;;;15.50;99.90;;;;;;5069272;28;20036;-90
2023/08/02 03:07:19;;;;;;;1.80;1.70;;;15.20;99.90;;;;;;5067059;28;20082;-93
2023/08/02 03:09:45;;;;;;;1.50;1.42;;;15.20;99.90;;;;;;5068989;28;20051;-90
2023/08/02 03:12:11;;;;;;;1.85;1.75;;;15.40;99.90;;;;;;5068013;28;20050;-88
2023/08/02 03:14:37;;;;;;;1.75;1.65;;;15.50;99.90;;;;;;5068709;28;20059;-92
2023/08/02 03:17:02;;;;;;;1.65;1.55;;;15.40;99.90;;;;;;5071621;28;20051;-89
2023/08/02 03:19:28;;;;;;;1.40;1.35;;;15.10;99.90;;;;;;5069519;28;20048;-90
2023/08/02 03:21:54;;;;;;;1.77;1.67;;;15.20;99.90;;;;;;5073953;28;20625;-90
2023/08/02 03:24:20;;;;;;;1.90;1.80;;;15.40;99.90;;;;;;5073738;28;20036;-90
2023/08/02 03:26:46;;;;;;;1.20;1.20;;;15.50;99.90;;;;;;5074588;28;20055;-91
2023/08/02 03:29:14;;;;;;;1.10;1.10;;;15.50;99.90;;;;;;5077747;28;20107;-93
2023/08/02 03:31:40;;;;;;;1.63;1.52;;;15.40;99.90;;;;;;5075712;28;20048;-92
2023/08/02 03:34:06;;;;;;;1.38;1.33;;;15.40;99.90;;;;;;5079896;27;20039;-91
2023/08/02 03:36:34;;;;;;;1.20;1.20;;;15.60;99.90;;;;;;5074010;27;20400;-91
2023/08/02 03:39:00;;;;;;;1.73;1.63;;;15.50;99.90;;;;;;5075752;28;21575;-90
2023/08/02 03:41:29;;;;;;;1.75;1.65;;;15.60;99.90;;;;;;5074127;28;20125;-94
2023/08/02 03:43:54;;;;;;;1.85;1.75;;;15.30;99.90;;;;;;5087163;28;20044;-89
2023/08/02 03:46:20;;;;;;;1.75;1.65;;;15.30;99.90;;;;;;5072410;28;20103;-92
2023/08/02 03:48:49;;;;;;;1.85;1.75;;;15.30;99.90;;;;;;5075339;28;20048;-92
2023/08/02 03:51:17;;;;;;;1.85;1.75;;;15.50;99.90;;;;;;5088974;28;20046;-95
2023/08/02 03:53:43;;;;;;;1.20;1.20;;;15.20;99.90;;;;;;5088617;28;20511;-87
2023/08/02 03:56:37;;;;;;;1.63;1.52;;;15.30;99.90;;;;;;5091839;27;20101;-95
2023/08/02 03:59:03;;;;;;;1.73;1.63;;;15.60;99.90;;;;;;5072479;27;20059;-92
2023/08/02 04:01:29;;;;;;;1.80;1.70;;;15.30;99.90;;;;;;5077041;28;20036;-92
2023/08/02 04:03:55;;;;;;;1.80;1.70;;;15.30;99.90;;;;;;5071100;28;20036;-90
2023/08/02 04:06:20;;;;;;;1.58;1.48;;;15.20;99.90;;;;;;5072939;28;20039;-89
2023/08/02 04:08:47;;;;;;;1.90;1.80;;;15.30;99.90;;;;;;5070306;28;20496;-89
2023/08/02 04:11:13;;;;;;;1.75;1.65;;;15.60;99.90;;;;;;5074123;28;20575;-89
2023/08/02 04:13:39;;;;;;;1.75;1.65;;;15.30;99.90;;;;;;5075562;28;20047;-89
2023/08/02 04:16:05;;;;;;;1.35;1.33;;;15.40;99.90;;;;;;5075538;28;20184;-92
2023/08/02 04:18:33;;;;;;;1.52;1.42;;;15.20;99.90;;;;;;5076429;28;20035;-92
2023/08/02 04:21:18;;;;;;;1.65;1.55;;;15.30;99.90;;;;;;5075518;28;20720;-94
2023/08/02 04:23:50;;;;;;;1.63;1.52;;;15.50;99.90;;;;;;5078486;27;20051;-93
2023/08/02 04:26:16;;;;;;;1.65;1.55;;;15.10;99.90;;;;;;5073558;28;20051;-91
2023/08/02 04:28:46;;;;;;;1.55;1.45;;;15.50;99.90;;;;;;5068287;28;20062;-96
2023/08/02 04:31:13;;;;;;;1.48;1.40;;;15.40;99.90;;;;;;5070671;28;20070;-90
2023/08/02 04:33:38;;;;;;;1.38;1.35;;;15.50;99.90;;;;;;5072667;27;20075;-91
2023/08/02 04:36:04;;;;;;;1.25;1.25;;;15.50;99.90;;;;;;5086648;28;20097;-87
2023/08/02 04:38:30;;;;;;;1.65;1.55;;;15.50;99.90;;;;;;5088453;28;20046;-89
2023/08/02 04:40:58;;;;;;;2.00;1.90;;;15.30;99.90;;;;;;5066566;28;21232;-93
2023/08/02 04:43:24;;;;;;;1.80;1.70;;;15.60;99.90;;;;;;5069238;28;20089;-90
2023/08/02 04:45:52;;;;;;;1.67;1.58;;;15.70;99.90;;;;;;5071222;28;20132;-93
2023/08/02 04:48:18;;;;;;;1.73;1.63;;;15.70;99.90;;;;;;5073628;28;20108;-90
2023/08/02 04:50:46;;;;;;;1.23;1.23;;;15.70;99.90;;;;;;5072585;28;20488;-92
2023/08/02 04:53:12;;;;;;;1.90;1.80;;;15.60;99.90;;;;;;5073089;28;20128;-92
2023/08/02 04:55:45;;;;;;;1.80;1.70;;;15.40;99.90;;;;;;5070050;28;20090;-92
2023/08/02 04:58:11;;;;;;;1.85;1.75;;;15.70;99.90;;;;;;5069253;28;20052;-91
2023/08/02 05:00:39;;;;;;;1.45;1.38;;;15.60;99.90;;;;;;5059240;28;20124;-92
2023/08/02 05:03:08;;;;;;;1.60;1.50;;;15.50;99.90;;;;;;5070644;28;20130;-90
2023/08/02 05:05:33;;;;;;;1.30;1.30;;;15.60;99.90;;;;;;5069264;28;20180;-91
2023/08/02 05:08:49;;;;;;;1.55;1.45;;;15.90;99.90;;;;;;5075855;28;20043;-95
2023/08/02 05:11:15;;;;;;;1.30;1.30;;;16.00;99.90;;;;;;5005048;28;20048;-91
2023/08/02 05:14:06;;;;;;;1.45;1.40;;;16.20;99.90;;;;;;5032616;28;20545;-96
2023/08/02 05:17:08;;;;;;;1.42;1.40;;;16.00;99.90;;;;;;5028621;28;20080;-95
2023/08/02 05:19:34;;;;;;;1.75;1.65;;;15.90;99.90;;;;;;5019528;28;20044;-92
2023/08/02 05:22:06;;;;;;;1.15;1.15;;;15.90;99.90;;;;;;5013934;28;20080;-96
2023/08/02 05:24:37;;;;;;;1.20;1.20;;;16.20;99.90;;;;;;5031465;28;20036;-95
2023/08/02 05:27:12;;;;;;;1.00;1.00;;;16.00;99.90;;;;;;5009118;28;20087;-94
2023/08/02 05:30:30;;;;;;;1.55;1.45;;;16.20;99.90;;;;;;5013989;28;20064;-95
2023/08/02 05:32:56;;;;;;;1.52;1.42;;;16.20;99.90;;;;;;5025785;28;20288;-90
2023/08/02 05:35:23;;;;;;;1.23;1.23;;;16.30;99.90;;;;;;5033497;28;20051;-89
2023/08/02 05:38:33;;;;;;;1.23;1.20;;;18.50;99.90;;;;;;5070050;28;20047;-95
2023/08/02 05:41:28;;;;;;;1.42;1.38;;;18.00;99.90;;;;;;5060133;27;20028;-96
2023/08/02 05:48:28;;;;;;;1.13;1.13;;;17.90;99.90;;;;;;5070747;28;20082;-96
2023/08/02 05:50:54;;;;;;;1.10;1.10;;;17.50;99.90;;;;;;5051175;28;20040;-92
2023/08/02 05:57:51;;;;;;;1.38;1.33;;;17.10;99.90;;;;;;4963449;28;20054;-96
2023/08/02 06:00:37;;;;;;;0.80;0.80;;;17.00;99.90;;;;;;4999653;28;20041;-95
2023/08/02 06:03:50;;;;;;;1.23;1.23;;;16.90;99.90;;;;;;5076135;27;20059;-96
2023/08/02 06:06:43;;;;;;;1.20;1.20;;;16.70;99.90;;;;;;5017021;28;20113;-96
2023/08/02 06:09:36;;;;;;;1.00;1.00;;;16.70;99.90;;;;;;5054142;28;20063;-96
2023/08/02 06:15:43;;;;;;;0.93;0.93;;;16.80;99.90;;;;;;5051412;28;20036;-90
2023/08/02 06:18:09;;;;;;;1.40;1.35;;;16.80;99.90;;;;;;5015702;28;20041;-93
2023/08/02 06:20:37;;;;;;;0.80;0.80;;;16.90;99.90;;;;;;5005604;28;20194;-90
2023/08/02 06:23:06;;;;;;;1.55;1.50;;;16.60;99.90;;;;;;5014549;28;20829;-92
2023/08/02 06:25:32;;;;;;;1.45;1.45;;;16.80;99.90;;;;;;5010634;28;20051;-91
2023/08/02 06:27:57;;;;;;;1.30;1.30;;;16.80;99.90;;;;;;5024204;28;20044;-94
2023/08/02 06:30:26;;;;;;;1.30;1.30;;;16.80;99.90;;;;;;5073236;28;20134;-94
2023/08/02 06:32:52;;;;;;;1.35;1.35;;;16.80;99.90;;;;;;5072505;28;20101;-88
2023/08/02 06:35:23;;;;;;;0.70;0.70;;;16.70;99.90;;;;;;5071194;28;20043;-95
2023/08/02 06:37:52;;;;;;;0.90;0.90;;;16.80;99.90;;;;;;5077029;28;20071;-93
2023/08/02 06:40:18;;;;;;;1.23;1.23;;;17.00;99.90;;;;;;5070638;28;20042;-89
2023/08/02 06:42:44;;;;;;;1.13;1.13;;;16.80;99.90;;;;;;5074029;28;20044;-89
2023/08/02 06:45:10;;;;;;;1.08;1.08;;;16.90;99.90;;;;;;5083237;28;20054;-91
2023/08/02 06:47:35;;;;;;;1.20;1.20;;;16.90;99.90;;;;;;5073846;28;20069;-90
2023/08/02 06:50:01;;;;;;;1.25;1.25;;;17.00;99.90;;;;;;5091611;28;20044;-88
2023/08/02 06:52:29;;;;;;;1.25;1.25;;;17.00;99.90;;;;;;5084771;28;20047;-89
2023/08/02 06:54:55;;;;;;;1.30;1.30;;;16.90;99.90;;;;;;5070102;28;20048;-89
2023/08/02 06:57:24;;;;;;;1.15;1.15;;;16.80;99.90;;;;;;5086806;28;20056;-92
2023/08/02 06:59:55;;;;;;;1.50;1.45;;;16.70;99.90;;;;;;5075906;28;20498;-89
2023/08/02 07:02:24;;;;;;;1.20;1.20;;;16.80;99.90;;;;;;5077615;28;20122;-93
2023/08/02 07:04:53;;;;;;;1.08;1.08;;;16.80;99.90;;;;;;5078083;28;20071;-94
2023/08/02 07:07:18;;;;;;;1.27;1.27;;;16.70;99.90;;;;;;5091733;28;20039;-92
2023/08/02 07:09:48;;;;;;;0.95;0.95;;;16.80;99.90;;;;;;5080318;28;20069;-92
2023/08/02 07:12:20;;;;;;;1.15;1.15;;;16.80;99.90;;;;;;5078000;27;20270;-94
2023/08/02 07:14:45;;;;;;;1.17;1.17;;;16.70;99.90;;;;;;5070386;28;20071;-89
2023/08/02 07:17:11;;;;;;;1.48;1.40;;;16.70;99.90;;;;;;5080183;28;20662;-94
2023/08/02 07:19:37;;;;;;;0.98;0.98;;;16.70;99.90;;;;;;5075057;28;20439;-90
2023/08/02 07:22:03;;;;;;;1.33;1.33;;;16.70;99.90;;;;;;5091015;28;20036;-91
2023/08/02 07:24:29;;;;;;;1.23;1.23;;;16.60;99.90;;;;;;5072405;28;20105;-94
2023/08/02 07:26:56;;;;;;;1.25;1.25;;;16.70;99.90;;;;;;5091606;28;20097;-90
2023/08/02 07:29:21;;;;;;;1.40;1.35;;;16.60;99.90;;;;;;5078217;28;20122;-92
2023/08/02 07:31:50;;;;;;;1.23;1.23;;;16.70;99.90;;;;;;5077131;28;20154;-92
2023/08/02 07:34:21;;;;;;;1.05;1.05;;;16.80;99.90;;;;;;5082213;27;20126;-96
2023/08/02 07:36:53;;;;;;;1.05;1.05;;;16.60;99.90;;;;;;5076083;28;20035;-94
2023/08/02 07:39:34;;;;;;;1.17;1.17;;;16.50;99.90;;;;;;5098028;28;20036;-93
2023/08/02 07:42:31;;;;;;;0.88;0.88;;;16.60;99.90;;;;;;5084622;28;20031;-96
2023/08/02 07:45:24;;;;;;;1.25;1.25;;;16.60;99.90;;;;;;5089587;28;20044;-96
2023/08/02 07:47:50;;;;;;;1.23;1.23;;;16.50;99.90;;;;;;5047178;28;20108;-92
2023/08/02 07:50:16;;;;;;;1.13;1.13;;;16.40;99.90;;;;;;5076367;28;20044;-91
2023/08/02 07:52:42;;;;;;;1.20;1.20;;;16.30;99.90;;;;;;5079406;28;20118;-92
2023/08/02 07:55:08;;;;;;;1.45;1.38;;;16.40;99.90;;;;;;5076983;28;20056;-94
2023/08/02 07:57:34;;;;;;;1.42;1.38;;;16.00;99.90;;;;;;5079021;28;20043;-91
2023/08/02 08:00:00;;;;;;;1.33;1.30;;;16.10;99.90;;;;;;5078065;28;20051;-89
2023/08/02 08:03:10;;;;;;;1.48;1.40;;;16.30;99.90;;;;;;5074818;28;20104;-96
2023/08/02 08:05:50;;;;;;;1.15;1.15;;;15.90;99.90;;;;;;5070269;28;20047;-96
2023/08/02 08:08:30;;;;;;;1.55;1.45;;;16.20;99.90;;;;;;5075742;28;20075;-93
2023/08/02 08:11:44;;;;;;;1.13;1.13;;;16.10;99.90;;;;;;5074234;28;20059;-95
2023/08/02 08:14:13;;;;;;;1.75;1.65;;;15.90;99.90;;;;;;5077403;28;20104;-94
2023/08/02 08:16:58;;;;;;;;;;;;;;;;;;;;;
2023/08/02 08:19:58;;;;;;;1.33;1.30;;;16.30;99.90;;;;;;5120260;27;20050;-93
2023/08/02 08:22:37;;;;;;;1.63;1.52;;;15.90;99.90;;;;;;5083231;28;20130;-95
2023/08/02 08:25:08;;;;;;;1.75;1.65;;;16.40;99.90;;;;;;5082990;28;20040;-94
2023/08/02 08:28:03;;;;;;;2.22;2.13;;;15.90;99.90;;;;;;5083923;28;20046;-96
2023/08/02 08:31:28;;;;;;;2.20;2.10;;;15.90;99.90;;;;;;5099336;28;20047;-96
2023/08/02 08:38:12;;;;;;;2.50;2.40;;;16.30;99.90;;;;;;5049084;28;20068;-94
2023/08/02 08:40:38;;;;;;;3.33;3.13;;;16.70;99.90;;;;;;5011650;28;20050;-89
2023/08/02 08:43:36;;;;;;;3.08;2.88;;;16.80;99.90;;;;;;5015674;28;20051;-94
2023/08/02 08:46:36;;;;;;;2.97;2.78;;;16.40;99.90;;;;;;5081741;28;20134;-95
2023/08/02 08:49:13;;;;;;;2.55;2.45;;;17.00;99.90;;;;;;5078032;28;20067;-96
2023/08/02 08:56:31;;;;;;;2.08;1.98;;;16.90;99.90;;;;;;5028756;28;20084;-95
2023/08/02 08:59:04;;;;;;;2.40;2.30;;;17.10;99.90;;;;;;4957101;28;20586;-92
2023/08/02 09:01:47;;;;;;;2.20;2.10;;;16.50;99.90;;;;;;5004459;28;20487;-94
2023/08/02 09:04:22;;;;;;;2.63;2.53;;;17.00;99.90;;;;;;5021351;28;20072;-94
2023/08/02 09:06:52;;;;;;;2.30;2.20;;;16.80;99.90;;;;;;5018245;28;20225;-90
2023/08/02 09:09:21;;;;;;;2.33;2.22;;;16.50;99.90;;;;;;5059128;28;20069;-93
2023/08/02 09:11:55;;;;;;;2.30;2.20;;;16.50;99.90;;;;;;5082587;28;20036;-94
2023/08/02 09:14:27;;;;;;;1.83;1.73;;;16.50;99.90;;;;;;5080944;28;20039;-95
2023/08/02 09:17:03;;;;;;;1.90;1.80;;;16.90;99.90;;;;;;5079465;28;20044;-96
2023/08/02 09:19:41;;;;;;;2.00;1.90;;;16.40;99.90;;;;;;5093438;28;20043;-95
2023/08/02 09:22:19;;;;;;;1.83;1.73;;;16.90;99.90;;;;;;5086560;28;20084;-94
2023/08/02 09:42:32;;;;;;;2.92;2.72;;;17.00;99.90;;;;;;5007340;28;20096;-96
2023/08/02 09:51:55;;;;;;;3.55;3.35;;;16.40;99.90;;;;;;4884885;29;20053;-92
2023/08/02 09:57:52;;;;;;;3.42;3.22;;;16.50;99.90;;;;;;4902086;29;20306;-94
2023/08/02 10:00:42;;;;;;;3.22;3.03;;;16.40;99.90;;;;;;4903217;29;20182;-94
2023/08/02 10:03:35;;;;;;;3.28;3.08;;;16.40;99.90;;;;;;4929168;29;20220;-94
2023/08/02 10:06:07;;;;;;;3.17;2.97;;;16.50;99.90;;;;;;4920942;28;20135;-96
2023/08/02 10:09:17;;;;;;;3.50;3.30;;;16.50;99.90;;;;;;4937611;29;20055;-96
2023/08/02 10:12:08;;;;;;;3.05;2.85;;;17.10;99.90;;;;;;4934892;29;20047;-94
2023/08/02 10:15:21;;;;;;;3.65;3.45;;;16.50;99.90;;;;;;4930543;28;20073;-94
2023/08/02 10:18:25;;;;;;;3.22;3.03;;;16.80;99.90;;;;;;4960951;28;20042;-96
2023/08/02 10:23:49;;;;;;;3.25;3.05;;;17.30;99.90;;;;;;5008074;28;20115;-91
2023/08/02 10:26:49;;;;;;;3.10;2.90;;;16.70;99.90;;;;;;5016934;28;20106;-96
2023/08/02 10:30:08;;;;;;;3.30;3.10;;;17.00;99.90;;;;;;5037766;28;20041;-95
2023/08/02 10:33:01;;;;;;;3.65;3.45;;;16.90;99.90;;;;;;5022453;28;20041;-96
2023/08/02 10:38:55;;;;;;;2.90;2.70;;;17.40;99.90;;;;;;5026428;28;20075;-96
2023/08/02 10:41:53;;;;;;;3.05;2.85;;;17.70;99.90;;;;;;5023344;28;20414;-95
2023/08/02 10:45:08;;;;;;;2.65;2.55;;;17.70;99.90;;;;;;5007109;28;20045;-96
2023/08/02 10:51:45;;;;;;;2.33;2.22;;;17.40;99.90;;;;;;5057117;28;20146;-95
2023/08/02 10:54:47;;;;;;;;;;;;;;;;;;;;;
2023/08/02 10:57:26;;;;;;;2.40;2.30;;;17.20;99.90;;;;;;5007756;28;20057;-92
2023/08/02 11:00:09;;;;;;;1.60;1.50;;;17.20;99.90;;;;;;5019759;28;20123;-95
2023/08/02 11:02:48;;;;;;;1.90;1.80;;;17.20;99.90;;;;;;5021578;28;20069;-93
2023/08/02 11:08:55;;;;;;;0.90;0.90;;;18.20;99.90;;;;;;5040704;28;20120;-96
2023/08/02 11:11:34;;;;;;;1.80;1.70;;;17.50;99.90;;;;;;5023429;28;20041;-96
2023/08/02 11:14:30;;;;;;;1.50;1.42;;;17.90;99.90;;;;;;5020335;28;20044;-96
2023/08/02 11:17:36;;;;;;;1.30;1.30;;;18.20;99.90;;;;;;5005903;28;20049;-94
2023/08/02 11:20:45;;;;;;;1.35;1.35;;;17.70;99.90;;;;;;5005055;28;20053;-95
2023/08/02 11:23:22;;;;;;;1.30;1.30;;;18.40;99.90;;;;;;5015254;28;20049;-89
2023/08/02 11:25:50;;;;;;;1.48;1.40;;;18.30;99.90;;;;;;5017200;28;20068;-91
2023/08/02 11:28:16;;;;;;;1.70;1.60;;;18.30;99.90;;;;;;5022927;28;20180;-93
2023/08/02 11:31:51;;;;;;;1.80;1.70;;;18.80;99.90;;;;;;4943651;29;20055;-95
2023/08/02 11:34:18;;;;;;;1.33;1.33;;;19.30;99.90;;;;;;4930564;29;20059;-92
2023/08/02 11:36:53;;;;;;;1.65;1.55;;;18.70;99.90;;;;;;5013057;28;20049;-92
2023/08/02 11:39:23;;;;;;;1.65;1.55;;;19.00;99.90;;;;;;5011277;28;20092;-94
2023/08/02 11:49:21;;;;;;;1.23;1.23;;;18.80;99.90;;;;;;5044829;28;20049;-93
2023/08/02 11:52:01;;;;;;;1.55;1.45;;;19.90;99.90;;;;;;5037538;28;20048;-94
2023/08/02 11:54:42;;;;;;;1.25;1.25;;;20.30;99.90;;;;;;5016387;28;20037;-94
2023/08/02 11:57:11;;;;;;;1.23;1.23;;;21.10;99.90;;;;;;5025883;28;20052;-95
2023/08/02 11:59:50;;;;;;;1.50;1.45;;;21.00;99.90;;;;;;5017307;28;20506;-96
2023/08/02 12:02:35;;;;;;;1.17;1.17;;;20.40;99.90;;;;;;5037724;28;20115;-91
2023/08/02 12:05:05;;;;;;;1.23;1.23;;;20.40;99.90;;;;;;5019713;28;20048;-94
2023/08/02 12:07:44;;;;;;;1.10;1.10;;;20.90;99.90;;;;;;5034141;28;20052;-96
2023/08/02 12:10:28;;;;;;;1.35;1.35;;;21.00;99.90;;;;;;5022484;28;20049;-96
2023/08/02 12:12:54;;;;;;;1.25;1.25;;;20.50;99.90;;;;;;5014240;28;20103;-91
2023/08/02 12:16:20;;;;;;;1.17;1.17;;;21.00;99.90;;;;;;5020743;28;20075;-96
2023/08/02 12:18:53;;;;;;;1.35;1.35;;;21.80;99.90;;;;;;5019977;28;20091;-94
2023/08/02 12:21:36;;;;;;;;;;;;;;;;;;;;;
2023/08/02 12:24:30;;;;;;;1.33;1.33;;;21.60;99.90;;;;;;5044885;28;20075;-95
2023/08/02 12:28:01;;;;;;;1.45;1.45;;;22.30;99.90;;;;;;5020274;28;20037;-95
2023/08/02 12:36:03;;;;;;;;;;;;;;;;;;;;;
2023/08/02 12:41:34;;;;;;;0.90;0.90;;;22.00;99.90;;;;;;5427663;22;20055;-89
2023/08/02 12:44:06;;;;;;;1.48;1.48;;;21.90;99.90;;;;;;5066104;28;20044;-96
2023/08/02 12:46:34;;;;;;;1.30;1.30;;;21.90;99.90;;;;;;5048265;28;20059;-94
2023/08/02 12:49:09;;;;;;;1.55;1.50;;;21.70;99.90;;;;;;5053916;28;20062;-96
2023/08/02 12:52:34;;;;;;;1.30;1.30;;;21.60;99.90;;;;;;5059334;28;20122;-96
2023/08/02 12:55:29;;;;;;;1.65;1.58;;;21.50;99.90;;;;;;5055597;28;20040;-93
2023/08/02 12:58:01;;;;;;;1.30;1.30;;;21.40;99.90;;;;;;5058558;28;20400;-91
2023/08/02 13:00:33;;;;;;;1.17;1.17;;;21.30;99.90;;;;;;5064704;28;20488;-94
2023/08/02 13:03:48;;;;;;;1.17;1.17;;;21.40;99.90;;;;;;5083340;28;20055;-96
2023/08/02 13:06:47;;;;;;;;;;;21.10;99.90;;;;;;5065719;28;20044;-96
2023/08/02 13:09:59;;;;;;;1.15;1.15;;;21.10;99.90;;;;;;5071762;28;19911;-96
2023/08/02 13:12:57;;;;;;;1.25;1.25;;;21.10;99.90;;;;;;5061307;28;20096;-94
2023/08/02 13:15:23;;;;;;;0.80;0.80;;;21.30;99.90;;;;;;5064247;28;20051;-91
2023/08/02 13:17:52;;;;;;;1.20;1.20;;;21.40;99.90;;;;;;5058513;28;20040;-93
2023/08/02 13:23:53;;;;;;;1.30;1.30;;;21.40;99.90;;;;;;5083984;28;20048;-91
2023/08/02 13:30:11;;;;;;;1.20;1.20;;;21.50;99.90;;;;;;5043909;28;20056;-94
2023/08/02 13:32:37;;;;;;;0.60;0.60;;;21.40;99.90;;;;;;5081181;28;20043;-94
2023/08/02 13:35:04;;;;;;;0.88;0.88;;;21.50;99.90;;;;;;5055078;28;20386;-91
2023/08/02 13:37:34;;;;;;;1.05;1.05;;;21.50;99.90;;;;;;5055851;28;20076;-95
2023/08/02 13:40:00;;;;;;;1.20;1.20;;;21.60;99.90;;;;;;5055881;28;20447;-90
2023/08/02 13:42:27;;;;;;;0.88;0.88;;;21.70;99.90;;;;;;5052435;28;20036;-90
2023/08/02 13:44:54;;;;;;;0.90;0.90;;;22.50;99.90;;;;;;5072526;28;20043;-88
2023/08/02 13:47:20;;;;;;;1.08;1.08;;;22.60;99.90;;;;;;5070425;28;20516;-87
2023/08/02 13:49:46;;;;;;;1.05;1.05;;;22.10;99.90;;;;;;5070368;28;20071;-89
2023/08/02 13:52:11;;;;;;;0.98;0.98;;;22.20;99.90;;;;;;5053524;28;20079;-90
2023/08/02 13:54:37;;;;;;;1.02;1.02;;;22.60;99.90;;;;;;5071693;28;20481;-87
2023/08/02 13:57:03;;;;;;;0.60;0.60;;;22.80;99.90;;;;;;5053311;28;20044;-88
2023/08/02 13:59:29;;;;;;;1.42;1.40;;;22.50;99.90;;;;;;5057275;28;20047;-89
2023/08/02 14:01:55;;;;;;;1.10;1.10;;;22.40;99.90;;;;;;5053712;28;20052;-90
2023/08/02 14:04:33;;;;;;;1.13;1.13;;;22.40;99.90;;;;;;5055403;28;20392;-93
2023/08/02 14:06:59;;;;;;;1.10;1.10;;;22.70;99.90;;;;;;5054986;28;20047;-92
2023/08/02 14:09:24;;;;;;;1.23;1.23;;;22.70;99.90;;;;;;5053828;28;20424;-85
2023/08/02 14:11:56;;;;;;;1.20;1.20;;;22.20;99.90;;;;;;5071487;28;20048;-93
2023/08/02 14:14:22;;;;;;;1.30;1.30;;;22.20;99.90;;;;;;5052109;28;20067;-89
2023/08/02 14:16:48;;;;;;;1.30;1.30;;;22.10;99.90;;;;;;5052284;28;20047;-88
2023/08/02 14:19:13;;;;;;;1.33;1.33;;;22.10;99.90;;;;;;5067824;28;20055;-86
2023/08/02 14:21:39;;;;;;;1.17;1.17;;;21.90;99.90;;;;;;5068184;28;20048;-94
2023/08/02 14:24:05;;;;;;;1.35;1.35;;;21.70;99.90;;;;;;5056268;28;20059;-91
2023/08/02 14:26:54;;;;;;;1.42;1.42;;;21.80;99.90;;;;;;5055512;28;20047;-96
2023/08/02 14:29:20;;;;;;;1.27;1.27;;;21.50;99.90;;;;;;5042010;28;20062;-89
2023/08/02 14:31:45;;;;;;;1.25;1.25;;;21.80;99.90;;;;;;5068942;28;20039;-93
2023/08/02 14:34:11;;;;;;;1.23;1.23;;;22.10;99.90;;;;;;5053080;28;20047;-92
2023/08/02 14:36:40;;;;;;;1.25;1.25;;;22.30;99.90;;;;;;5053420;28;20047;-93
2023/08/02 14:39:08;;;;;;;1.25;1.25;;;22.50;99.90;;;;;;5055090;28;20039;-92
2023/08/02 14:41:37;;;;;;;1.35;1.35;;;23.20;99.90;;;;;;5054428;28;20612;-95
2023/08/02 14:44:03;;;;;;;1.42;1.42;;;23.40;99.90;;;;;;5051184;28;20615;-94
2023/08/02 14:46:29;;;;;;;1.42;1.42;;;23.10;99.90;;;;;;5056305;28;20138;-94
2023/08/02 14:49:19;;;;;;;1.58;1.52;;;23.10;99.90;;;;;;5057669;28;20055;-94
2023/08/02 14:55:54;;;;;;;1.30;1.30;;;22.90;99.90;;;;;;5101732;28;20043;-96
2023/08/02 14:58:36;;;;;;;;;;;;;;;;;;;;;
2023/08/02 15:01:33;;;;;;;1.15;1.15;;;22.70;99.90;;;;;;5066675;28;20151;-96